N75CC KASE-KSFO
Flight info
| Callsign | N75CC |
|---|---|
| Flight time | N/A |
| Altitude | 43000 |
| Route | LINDZ JNC BEVRR KATTS INYOE ALWYS3 |
| Aircraft | GLF5/M-SFGHIRWXY/S |
Departure
| Time | 2026-04-22 00:36 |
|---|---|
| Airport | Aspen-Pitkin County Airport (Sardy Field) (KASE) |
Arrival
| Time | N/A |
|---|---|
| Airport | San Francisco International Airport (KSFO) |
| Time | Latitude | Longitude | Altitude | Speed | Heading |
|---|---|---|---|---|---|
| 2026-04-22 00:18 | 39.22284 | -106.86668 | 7804 ft | 0 kts | 250° |
| 2026-04-22 00:30 | 39.22258 | -106.86714 | 7803 ft | 7 kts | 206° |
| 2026-04-22 00:31 | 39.22219 | -106.86714 | 7805 ft | 4 kts | 161° |
| 2026-04-22 00:31 | 39.22158 | -106.86685 | 7810 ft | 14 kts | 160° |
| 2026-04-22 00:31 | 39.22043 | -106.86631 | 7819 ft | 17 kts | 158° |
| 2026-04-22 00:31 | 39.21943 | -106.86578 | 7827 ft | 14 kts | 160° |
| 2026-04-22 00:32 | 39.21856 | -106.86540 | 7833 ft | 13 kts | 163° |
| 2026-04-22 00:32 | 39.21753 | -106.86497 | 7840 ft | 17 kts | 161° |
| 2026-04-22 00:32 | 39.21625 | -106.86433 | 7849 ft | 21 kts | 160° |
| 2026-04-22 00:32 | 39.21478 | -106.86365 | 7859 ft | 20 kts | 159° |
| 2026-04-22 00:33 | 39.21356 | -106.86304 | 7866 ft | 16 kts | 158° |
| 2026-04-22 00:33 | 39.21258 | -106.86256 | 7872 ft | 12 kts | 161° |
| 2026-04-22 00:33 | 39.21224 | -106.86247 | 7873 ft | 0 kts | 176° |
| 2026-04-22 00:35 | 39.21223 | -106.86247 | 7873 ft | 1 kts | 176° |
| 2026-04-22 00:35 | 39.21186 | -106.86272 | 7873 ft | 12 kts | 236° |
| 2026-04-22 00:35 | 39.21215 | -106.86364 | 7868 ft | 21 kts | 342° |
| 2026-04-22 00:35 | 39.21638 | -106.86563 | 7842 ft | 106 kts | 338° |
| 2026-04-22 00:36 | 39.22554 | -106.86994 | 7828 ft | 165 kts | 337° |
| 2026-04-22 00:36 | 39.23712 | -106.87240 | 8409 ft | 170 kts | 351° |
| 2026-04-22 00:36 | 39.24952 | -106.87403 | 9050 ft | 185 kts | 350° |
| 2026-04-22 00:36 | 39.26270 | -106.87680 | 9633 ft | 200 kts | 336° |
| 2026-04-22 00:37 | 39.27253 | -106.88969 | 10203 ft | 211 kts | 289° |
| 2026-04-22 00:37 | 39.27639 | -106.90894 | 10800 ft | 233 kts | 282° |
| 2026-04-22 00:37 | 39.28023 | -106.93066 | 11418 ft | 257 kts | 281° |
| 2026-04-22 00:37 | 39.28504 | -106.95402 | 11986 ft | 281 kts | 292° |
| 2026-04-22 00:38 | 39.29773 | -106.97491 | 12583 ft | 304 kts | 311° |
| 2026-04-22 00:38 | 39.31049 | -106.99871 | 13134 ft | 329 kts | 301° |
| 2026-04-22 00:38 | 39.32353 | -107.02444 | 13873 ft | 350 kts | 301° |
| 2026-04-22 00:38 | 39.33667 | -107.05141 | 14838 ft | 362 kts | 302° |
| 2026-04-22 00:39 | 39.35046 | -107.07966 | 15865 ft | 372 kts | 301° |
| 2026-04-22 00:39 | 39.36449 | -107.10816 | 16918 ft | 380 kts | 300° |
| 2026-04-22 00:39 | 39.37851 | -107.13773 | 17977 ft | 386 kts | 295° |
| 2026-04-22 00:39 | 39.38502 | -107.17097 | 19058 ft | 383 kts | 269° |
| 2026-04-22 00:40 | 39.38045 | -107.20509 | 20180 ft | 380 kts | 249° |
| 2026-04-22 00:40 | 39.37314 | -107.23805 | 21245 ft | 386 kts | 256° |
| 2026-04-22 00:40 | 39.36653 | -107.27188 | 22326 ft | 389 kts | 253° |
| 2026-04-22 00:40 | 39.35996 | -107.30644 | 23385 ft | 394 kts | 253° |
| 2026-04-22 00:41 | 39.35312 | -107.34130 | 24453 ft | 400 kts | 254° |
| 2026-04-22 00:41 | 39.34610 | -107.37686 | 25441 ft | 406 kts | 253° |
| 2026-04-22 00:41 | 39.33922 | -107.41246 | 26450 ft | 412 kts | 253° |
| 2026-04-22 00:41 | 39.33206 | -107.44888 | 27523 ft | 416 kts | 253° |
| 2026-04-22 00:42 | 39.32487 | -107.48534 | 28558 ft | 421 kts | 253° |
| 2026-04-22 00:42 | 39.31760 | -107.52234 | 29643 ft | 425 kts | 253° |
| 2026-04-22 00:42 | 39.31028 | -107.55941 | 30978 ft | 422 kts | 253° |
| 2026-04-22 00:42 | 39.30304 | -107.59595 | 32318 ft | 417 kts | 254° |
| 2026-04-22 00:43 | 39.29591 | -107.63206 | 33530 ft | 413 kts | 254° |
| 2026-04-22 00:43 | 39.28883 | -107.66773 | 34867 ft | 408 kts | 253° |
| 2026-04-22 00:43 | 39.28179 | -107.70332 | 36030 ft | 407 kts | 253° |
| 2026-04-22 00:43 | 39.27471 | -107.73896 | 37247 ft | 405 kts | 252° |
| 2026-04-22 00:44 | 39.26765 | -107.77444 | 38289 ft | 406 kts | 252° |
| 2026-04-22 00:44 | 39.26049 | -107.81026 | 39419 ft | 404 kts | 252° |
| 2026-04-22 00:44 | 39.25348 | -107.84527 | 40287 ft | 405 kts | 252° |
| 2026-04-22 00:44 | 39.24641 | -107.88051 | 41312 ft | 401 kts | 252° |
| 2026-04-22 00:45 | 39.23953 | -107.91475 | 42197 ft | 399 kts | 252° |
| 2026-04-22 00:45 | 39.23247 | -107.94989 | 43020 ft | 398 kts | 253° |
| 2026-04-22 00:45 | 39.22781 | -107.97298 | 43291 ft | 403 kts | 253° |
| 2026-04-22 00:45 | 39.21798 | -108.02171 | 43280 ft | 425 kts | 253° |
| 2026-04-22 00:46 | 39.21042 | -108.05919 | 43267 ft | 442 kts | 253° |
| 2026-04-22 00:46 | 39.20239 | -108.09885 | 43258 ft | 460 kts | 253° |
| 2026-04-22 00:46 | 39.19424 | -108.13919 | 43219 ft | 454 kts | 253° |
| 2026-04-22 00:46 | 39.18629 | -108.17836 | 43185 ft | 436 kts | 253° |
| 2026-04-22 00:47 | 39.17878 | -108.21529 | 43212 ft | 420 kts | 253° |
| 2026-04-22 00:47 | 39.16383 | -108.28850 | 43157 ft | 415 kts | 252° |
| 2026-04-22 00:48 | 39.14896 | -108.36101 | 43142 ft | 422 kts | 253° |
| 2026-04-22 00:48 | 39.13370 | -108.43534 | 43108 ft | 424 kts | 252° |
| 2026-04-22 00:49 | 39.11844 | -108.50933 | 43085 ft | 423 kts | 252° |
| 2026-04-22 00:49 | 39.10324 | -108.58278 | 43081 ft | 423 kts | 252° |
| 2026-04-22 00:50 | 39.08802 | -108.65611 | 43070 ft | 422 kts | 252° |
| 2026-04-22 00:50 | 39.07266 | -108.72978 | 43103 ft | 423 kts | 252° |
| 2026-04-22 00:51 | 39.05877 | -108.80408 | 43105 ft | 426 kts | 262° |
| 2026-04-22 00:51 | 39.05612 | -108.88091 | 43123 ft | 428 kts | 263° |
| 2026-04-22 00:52 | 39.05317 | -108.95768 | 43103 ft | 427 kts | 263° |
| 2026-04-22 00:52 | 39.05012 | -109.03458 | 43100 ft | 426 kts | 263° |
| 2026-04-22 00:53 | 39.04699 | -109.11182 | 43071 ft | 427 kts | 263° |
| 2026-04-22 00:53 | 39.04385 | -109.18842 | 43058 ft | 427 kts | 263° |
| 2026-04-22 00:54 | 39.04064 | -109.26548 | 43044 ft | 426 kts | 263° |
| 2026-04-22 00:54 | 39.03741 | -109.34177 | 43053 ft | 426 kts | 263° |
| 2026-04-22 00:55 | 39.03409 | -109.41877 | 43051 ft | 427 kts | 263° |
| 2026-04-22 00:55 | 39.02904 | -109.53403 | 43062 ft | 425 kts | 263° |
| 2026-04-22 00:56 | 39.02560 | -109.61088 | 43058 ft | 425 kts | 263° |
| 2026-04-22 00:56 | 39.02215 | -109.68665 | 43059 ft | 425 kts | 263° |
| 2026-04-22 00:57 | 39.01866 | -109.76314 | 43063 ft | 424 kts | 263° |
| 2026-04-22 00:57 | 39.01508 | -109.83972 | 43044 ft | 424 kts | 263° |
| 2026-04-22 00:58 | 39.01148 | -109.91571 | 43030 ft | 424 kts | 263° |
| 2026-04-22 00:58 | 39.00780 | -109.99202 | 42995 ft | 423 kts | 263° |
| 2026-04-22 00:59 | 39.00412 | -110.06808 | 42999 ft | 423 kts | 263° |
| 2026-04-22 00:59 | 39.00037 | -110.14443 | 42997 ft | 423 kts | 263° |
| 2026-04-22 01:00 | 38.99657 | -110.22032 | 42999 ft | 422 kts | 263° |
| 2026-04-22 01:00 | 38.99275 | -110.29603 | 43012 ft | 422 kts | 263° |
| 2026-04-22 01:01 | 38.98888 | -110.37165 | 43016 ft | 421 kts | 263° |
| 2026-04-22 01:01 | 38.98492 | -110.44754 | 43020 ft | 420 kts | 263° |
| 2026-04-22 01:02 | 38.98096 | -110.52309 | 43041 ft | 421 kts | 263° |
| 2026-04-22 01:02 | 38.97695 | -110.59871 | 43047 ft | 420 kts | 262° |
| 2026-04-22 01:03 | 38.97291 | -110.67374 | 43056 ft | 419 kts | 262° |
| 2026-04-22 01:03 | 38.96884 | -110.74844 | 43074 ft | 417 kts | 262° |
| 2026-04-22 01:04 | 38.96469 | -110.82348 | 43064 ft | 418 kts | 262° |
| 2026-04-22 01:04 | 38.96048 | -110.89902 | 43073 ft | 419 kts | 262° |
| 2026-04-22 01:05 | 38.95623 | -110.97440 | 43062 ft | 418 kts | 261° |
| 2026-04-22 01:05 | 38.95194 | -111.04932 | 43071 ft | 417 kts | 262° |
| 2026-04-22 01:06 | 38.94762 | -111.12431 | 43069 ft | 416 kts | 262° |
| 2026-04-22 01:06 | 38.94329 | -111.19867 | 43066 ft | 416 kts | 262° |
| 2026-04-22 01:07 | 38.93886 | -111.27378 | 43069 ft | 418 kts | 261° |